Time;durP1;ratioP1;P1;durP2;ratioP2;P2;SDS_P1;SDS_P2;PMS_P1;PMS_P2;Temp;Humidity;BMP_temperature;BMP_pressure;BME280_temperature;BME280_humidity;BME280_pressure;Samples;Min_cycle;Max_cycle;Signal;HPM_P1;HPM_P2
2023/07/19 00:03:05;;;;;;;1.7;0.7;;;;;;;;;;;;;-69
2023/07/19 00:04:31;;;;;;;;;;;;;;;17.89;53.5752;101507.6;;;;-67
2023/07/19 00:09:29;;;;;;;;;;;;;;;17.86;53.79785;101514;;;;-69
2023/07/19 00:14:29;;;;;;;;;;;;;;;17.82;53.6123;101513.3;;;;-69
2023/07/19 00:19:31;;;;;;;;;;;;;;;17.84;53.65918;101511.5;;;;-67
2023/07/19 00:24:29;;;;;;;;;;;;;;;17.79;53.88086;101505.3;;;;-68
2023/07/19 00:29:29;;;;;;;;;;;;;;;17.78;53.78906;101508.6;;;;-68
2023/07/19 00:33:08;;;;;;;0.2;0;;;;;;;;;;;;;-69
2023/07/19 00:34:29;;;;;;;;;;;;;;;17.77;53.62891;101512.5;;;;-69
2023/07/19 00:39:29;;;;;;;;;;;;;;;17.76;53.95703;101511;;;;-68
2023/07/19 00:44:29;;;;;;;;;;;;;;;17.73;53.80469;101498.7;;;;-69
2023/07/19 00:49:29;;;;;;;;;;;;;;;17.72;53.83789;101498.6;;;;-67
2023/07/19 00:54:29;;;;;;;;;;;;;;;17.72;54.28027;101495.9;;;;-69
2023/07/19 00:59:32;;;;;;;;;;;;;;;17.68;54.15039;101496.6;;;;-67
2023/07/19 01:03:11;;;;;;;0.3;0.2;;;;;;;;;;;;;-69
2023/07/19 01:04:29;;;;;;;;;;;;;;;17.69;54.00488;101493.4;;;;-69
2023/07/19 01:09:29;;;;;;;;;;;;;;;17.68;54.35449;101488;;;;-69
2023/07/19 01:14:29;;;;;;;;;;;;;;;17.67;54.34277;101490.7;;;;-68
2023/07/19 01:19:29;;;;;;;;;;;;;;;17.65;54.4873;101489.6;;;;-67
2023/07/19 01:24:32;;;;;;;;;;;;;;;17.63;54.45117;101482.2;;;;-69
2023/07/19 01:29:29;;;;;;;;;;;;;;;17.66;54.43164;101486.6;;;;-70
2023/07/19 01:33:16;;;;;;;0.2;0.1;;;;;;;;;;;;;-68
2023/07/19 01:34:29;;;;;;;;;;;;;;;17.67;54.56738;101483.5;;;;-68
2023/07/19 01:39:29;;;;;;;;;;;;;;;17.65;54.78223;101479.1;;;;-69
2023/07/19 01:44:29;;;;;;;;;;;;;;;17.68;54.66113;101464.3;;;;-69
2023/07/19 01:49:33;;;;;;;;;;;;;;;17.65;54.84961;101464.9;;;;-67
2023/07/19 01:54:29;;;;;;;;;;;;;;;17.69;55.09277;101465.5;;;;-69
2023/07/19 01:59:29;;;;;;;;;;;;;;;17.67;55.19238;101463.7;;;;-69
2023/07/19 02:03:16;;;;;;;0.2;0;;;;;;;;;;;;;-69
2023/07/19 02:04:32;;;;;;;;;;;;;;;17.66;55.58789;101457.5;;;;-68
2023/07/19 02:09:31;;;;;;;;;;;;;;;17.7;55.43359;101461;;;;-69
2023/07/19 02:14:29;;;;;;;;;;;;;;;17.68;55.47656;101456;;;;-67
2023/07/19 02:19:29;;;;;;;;;;;;;;;17.68;55.74805;101439.5;;;;-71
2023/07/19 02:24:29;;;;;;;;;;;;;;;17.65;55.51855;101434.5;;;;-68
2023/07/19 02:29:29;;;;;;;;;;;;;;;17.67;55.63574;101433.5;;;;-69
2023/07/19 02:33:19;;;;;;;0.3;0.2;;;;;;;;;;;;;-67
2023/07/19 02:34:29;;;;;;;;;;;;;;;17.64;55.82227;101439;;;;-67
2023/07/19 02:39:30;;;;;;;;;;;;;;;17.63;56.10547;101441.9;;;;-68
2023/07/19 02:44:30;;;;;;;;;;;;;;;17.57;55.86035;101437.6;;;;-69
2023/07/19 02:49:29;;;;;;;;;;;;;;;17.58;56.01953;101432;;;;-70
2023/07/19 02:54:29;;;;;;;;;;;;;;;17.57;55.67969;101430.8;;;;-67
2023/07/19 02:59:29;;;;;;;;;;;;;;;17.57;55.91602;101436.4;;;;-67
2023/07/19 03:03:21;;;;;;;0.2;0.1;;;;;;;;;;;;;-69
2023/07/19 03:04:29;;;;;;;;;;;;;;;17.56;55.8125;101439.6;;;;-68
2023/07/19 03:09:32;;;;;;;;;;;;;;;17.54;56.07129;101446.3;;;;-71
2023/07/19 03:14:29;;;;;;;;;;;;;;;17.56;55.83594;101446.3;;;;-68
2023/07/19 03:19:29;;;;;;;;;;;;;;;17.53;56.09277;101455.4;;;;-70
2023/07/19 03:24:29;;;;;;;;;;;;;;;17.52;56.03516;101448.9;;;;-68
2023/07/19 03:29:29;;;;;;;;;;;;;;;17.51;55.97559;101448.3;;;;-69
2023/07/19 03:33:24;;;;;;;0.2;0;;;;;;;;;;;;;-67
2023/07/19 03:34:29;;;;;;;;;;;;;;;17.47;56.19727;101449;;;;-71
2023/07/19 03:39:29;;;;;;;;;;;;;;;17.46;56.27539;101440.5;;;;-68
2023/07/19 03:44:29;;;;;;;;;;;;;;;17.43;56.31738;101441.7;;;;-66
2023/07/19 03:49:29;;;;;;;;;;;;;;;17.43;56.19336;101438.1;;;;-69
2023/07/19 03:54:29;;;;;;;;;;;;;;;17.4;56.48438;101437.1;;;;-67
2023/07/19 03:59:29;;;;;;;;;;;;;;;17.4;56.2002;101433.6;;;;-69
2023/07/19 04:03:26;;;;;;;0.2;0;;;;;;;;;;;;;-67
2023/07/19 04:04:29;;;;;;;;;;;;;;;17.39;56.33496;101436.2;;;;-69
2023/07/19 04:09:29;;;;;;;;;;;;;;;17.39;56.20996;101440.3;;;;-68
2023/07/19 04:14:29;;;;;;;;;;;;;;;17.35;56.30762;101434.1;;;;-69
2023/07/19 04:19:29;;;;;;;;;;;;;;;17.33;56.29395;101433.9;;;;-69
2023/07/19 04:24:29;;;;;;;;;;;;;;;17.36;56.51172;101430.5;;;;-67
2023/07/19 04:29:29;;;;;;;;;;;;;;;17.36;56.29688;101426.5;;;;-68
2023/07/19 04:33:28;;;;;;;0.2;0.1;;;;;;;;;;;;;-68
2023/07/19 04:34:29;;;;;;;;;;;;;;;17.38;56.40137;101422.3;;;;-70
2023/07/19 04:39:29;;;;;;;;;;;;;;;17.41;56.22363;101426.9;;;;-69
2023/07/19 04:44:29;;;;;;;;;;;;;;;17.42;56.29395;101437.3;;;;-69
2023/07/19 04:49:30;;;;;;;;;;;;;;;17.43;56.39648;101437.9;;;;-68
2023/07/19 04:54:29;;;;;;;;;;;;;;;17.45;56.26367;101431.1;;;;-69
2023/07/19 04:59:31;;;;;;;;;;;;;;;17.47;56.3916;101429.7;;;;-69
2023/07/19 05:03:31;;;;;;;0.2;0.1;;;;;;;;;;;;;-68
2023/07/19 05:04:29;;;;;;;;;;;;;;;17.55;56.5127;101426.1;;;;-69
2023/07/19 05:09:29;;;;;;;;;;;;;;;17.59;56.26953;101432.2;;;;-68
2023/07/19 05:14:29;;;;;;;;;;;;;;;17.68;56.30371;101433.6;;;;-70
2023/07/19 05:19:29;;;;;;;;;;;;;;;17.75;56.52832;101437.1;;;;-68
2023/07/19 05:24:37;;;;;;;;;;;;;;;17.81;56.25195;101439.5;;;;-71
2023/07/19 05:29:32;;;;;;;;;;;;;;;17.87;56.42969;101438.4;;;;-69
2023/07/19 05:33:34;;;;;;;0.2;0;;;;;;;;;;;;;-68
2023/07/19 05:34:29;;;;;;;;;;;;;;;17.92;56.68457;101434.6;;;;-69
2023/07/19 05:39:29;;;;;;;;;;;;;;;17.94;56.78906;101434.4;;;;-68
2023/07/19 05:44:29;;;;;;;;;;;;;;;17.98;57.13477;101436.6;;;;-70
2023/07/19 05:49:29;;;;;;;;;;;;;;;18;57.14941;101438.1;;;;-69
2023/07/19 05:54:29;;;;;;;;;;;;;;;18.01;57.24023;101439.4;;;;-68
2023/07/19 05:59:29;;;;;;;;;;;;;;;18.08;56.93262;101439.8;;;;-68
2023/07/19 06:03:36;;;;;;;0.2;0;;;;;;;;;;;;;-69
2023/07/19 06:04:29;;;;;;;;;;;;;;;18.17;56.97852;101427.2;;;;-68
2023/07/19 06:09:31;;;;;;;;;;;;;;;18.25;56.77344;101428;;;;-68
2023/07/19 06:14:29;;;;;;;;;;;;;;;18.31;56.71191;101431.5;;;;-68
2023/07/19 06:19:29;;;;;;;;;;;;;;;18.37;56.48145;101425.7;;;;-67
2023/07/19 06:24:29;;;;;;;;;;;;;;;18.48;56.49609;101425.5;;;;-69
2023/07/19 06:29:29;;;;;;;;;;;;;;;18.6;56.2959;101424.9;;;;-68
2023/07/19 06:33:38;;;;;;;0.2;0;;;;;;;;;;;;;-69
2023/07/19 06:34:29;;;;;;;;;;;;;;;18.72;56.15234;101420.1;;;;-67
2023/07/19 06:39:29;;;;;;;;;;;;;;;18.9;56.23145;101420.3;;;;-70
2023/07/19 06:44:29;;;;;;;;;;;;;;;19.13;56.79395;101420;;;;-67
2023/07/19 06:49:29;;;;;;;;;;;;;;;19.22;56.39648;101421.5;;;;-68
2023/07/19 06:54:29;;;;;;;;;;;;;;;19.29;56.25879;101422.1;;;;-68
2023/07/19 06:59:30;;;;;;;;;;;;;;;19.35;56.35742;101429.9;;;;-69
2023/07/19 07:03:41;;;;;;;0.2;0;;;;;;;;;;;;;-68
2023/07/19 07:04:29;;;;;;;;;;;;;;;19.42;56.33203;101431.5;;;;-68
2023/07/19 07:09:30;;;;;;;;;;;;;;;19.49;56.46582;101442;;;;-70
2023/07/19 07:14:29;;;;;;;;;;;;;;;19.61;56.32129;101448.5;;;;-67
2023/07/19 07:19:29;;;;;;;;;;;;;;;19.69;56.17188;101450.3;;;;-68
2023/07/19 07:24:29;;;;;;;;;;;;;;;19.76;56.47656;101450.8;;;;-66
2023/07/19 07:29:29;;;;;;;;;;;;;;;19.83;56.24707;101452.4;;;;-66
2023/07/19 07:33:44;;;;;;;0.2;0.1;;;;;;;;;;;;;-67
2023/07/19 07:34:29;;;;;;;;;;;;;;;19.95;56.00098;101451.4;;;;-70
2023/07/19 07:39:29;;;;;;;;;;;;;;;20.11;55.94043;101449.6;;;;-68
2023/07/19 07:44:29;;;;;;;;;;;;;;;20.35;55.63965;101446.8;;;;-67
2023/07/19 07:49:29;;;;;;;;;;;;;;;20.67;55.16699;101452.9;;;;-68
2023/07/19 07:54:29;;;;;;;;;;;;;;;20.81;55.28516;101455.7;;;;-66
2023/07/19 07:59:29;;;;;;;;;;;;;;;20.92;55.67676;101454.9;;;;-66
2023/07/19 08:03:47;;;;;;;0.2;0;;;;;;;;;;;;;-67
2023/07/19 08:04:28;;;;;;;;;;;;;;;21.12;55.05078;101452.9;;;;-65
2023/07/19 08:09:29;;;;;;;;;;;;;;;21.23;55.78418;101449.9;;;;-66
2023/07/19 08:14:29;;;;;;;;;;;;;;;21.38;54.78516;101448.4;;;;-68
2023/07/19 08:19:28;;;;;;;;;;;;;;;21.47;54.69336;101446.3;;;;-66
2023/07/19 08:24:30;;;;;;;;;;;;;;;21.56;55.02441;101444.6;;;;-66
2023/07/19 08:29:33;;;;;;;;;;;;;;;21.64;55.10352;101446.6;;;;-67
2023/07/19 08:33:50;;;;;;;0.2;0;;;;;;;;;;;;;-67
2023/07/19 08:34:29;;;;;;;;;;;;;;;21.71;55.2832;101447.3;;;;-67
2023/07/19 08:39:29;;;;;;;;;;;;;;;21.96;54.81152;101444.1;;;;-68
2023/07/19 08:44:29;;;;;;;;;;;;;;;22.19;54.01563;101445.4;;;;-67
2023/07/19 08:49:29;;;;;;;;;;;;;;;22.29;53.79883;101445.3;;;;-67
2023/07/19 08:54:29;;;;;;;;;;;;;;;22.32;53.7334;101444.6;;;;-66
2023/07/19 08:59:29;;;;;;;;;;;;;;;22.31;54.09766;101452.8;;;;-67
2023/07/19 09:03:53;;;;;;;0.2;0;;;;;;;;;;;;;-66
2023/07/19 09:04:30;;;;;;;;;;;;;;;22.29;53.98145;101448.3;;;;-67
2023/07/19 09:09:29;;;;;;;;;;;;;;;22.25;54.61719;101453.5;;;;-67
2023/07/19 09:14:36;;;;;;;;;;;;;;;22.29;54.45117;101456.4;;;;-68
2023/07/19 09:19:28;;;;;;;;;;;;;;;22.18;54.82617;101462.9;;;;-67
2023/07/19 09:24:29;;;;;;;;;;;;;;;22.08;55.02051;101459.8;;;;-68
2023/07/19 09:29:32;;;;;;;;;;;;;;;21.92;55.81348;101464.7;;;;-67
2023/07/19 09:34:01;;;;;;;0.2;0;;;;;;;;;;;;;-66
2023/07/19 09:34:29;;;;;;;;;;;;;;;21.81;55.93555;101472.6;;;;-68
2023/07/19 09:39:29;;;;;;;;;;;;;;;21.72;55.90234;101472.3;;;;-67
2023/07/19 09:44:29;;;;;;;;;;;;;;;21.69;55.93359;101466.4;;;;-66
2023/07/19 09:49:29;;;;;;;;;;;;;;;21.78;56.02344;101463.5;;;;-67
2023/07/19 09:54:29;;;;;;;;;;;;;;;21.84;56.04297;101466.5;;;;-69
2023/07/19 09:59:32;;;;;;;;;;;;;;;21.87;55.77246;101469.5;;;;-66
2023/07/19 10:04:01;;;;;;;0.2;0;;;;;;;;;;;;;-67
2023/07/19 10:04:29;;;;;;;;;;;;;;;21.88;55.56738;101465.9;;;;-67
2023/07/19 10:09:44;;;;;;;;;;;;;;;21.97;55.6582;101464.7;;;;-69
2023/07/19 10:14:29;;;;;;;;;;;;;;;22.09;55.73145;101464.4;;;;-68
2023/07/19 10:19:29;;;;;;;;;;;;;;;22.16;55.73926;101459.8;;;;-68
2023/07/19 10:24:29;;;;;;;;;;;;;;;22.22;55.71289;101460.8;;;;-67
2023/07/19 10:29:40;;;;;;;;;;;;;;;22.25;55.83105;101463.3;;;;-67
2023/07/19 10:34:06;;;;;;;0.2;0;;;;;;;;;;;;;-67
2023/07/19 10:34:35;;;;;;;;;;;;;;;22.32;55.88574;101460.6;;;;-67
2023/07/19 10:39:30;;;;;;;;;;;;;;;22.43;55.67188;101464.3;;;;-67
2023/07/19 10:44:30;;;;;;;;;;;;;;;22.64;55.49023;101463.9;;;;-69
2023/07/19 10:49:31;;;;;;;;;;;;;;;22.88;55.00391;101470.4;;;;-67
2023/07/19 10:54:29;;;;;;;;;;;;;;;23.04;53.95703;101471;;;;-66
2023/07/19 10:59:29;;;;;;;;;;;;;;;23.26;53.375;101465.9;;;;-68
2023/07/19 11:04:08;;;;;;;0.2;0;;;;;;;;;;;;;-66
2023/07/19 11:04:32;;;;;;;;;;;;;;;23.54;52.46582;101470.7;;;;-69
2023/07/19 11:09:29;;;;;;;;;;;;;;;23.85;52.39844;101467.1;;;;-67
2023/07/19 11:14:41;;;;;;;;;;;;;;;24.25;52.01953;101469.1;;;;-68
2023/07/19 11:19:38;;;;;;;;;;;;;;;24.45;50.89063;101469.1;;;;-66
2023/07/19 11:24:36;;;;;;;;;;;;;;;24.49;50.76855;101467.4;;;;-67
2023/07/19 11:29:32;;;;;;;;;;;;;;;24.49;50.6875;101468;;;;-67
2023/07/19 11:34:12;;;;;;;0.2;0;;;;;;;;;;;;;-67
2023/07/19 11:34:29;;;;;;;;;;;;;;;24.57;50.68555;101466.6;;;;-68
2023/07/19 11:39:29;;;;;;;;;;;;;;;24.65;50.15332;101464.1;;;;-66
2023/07/19 11:44:29;;;;;;;;;;;;;;;24.84;50.08105;101460.2;;;;-67
2023/07/19 11:49:29;;;;;;;;;;;;;;;25.12;49.15527;101463.5;;;;-67
2023/07/19 11:54:29;;;;;;;;;;;;;;;25.3;49.12891;101457;;;;-66
2023/07/19 11:59:28;;;;;;;;;;;;;;;25.4;49.03613;101454.4;;;;-66
2023/07/19 12:04:15;;;;;;;0.2;0;;;;;;;;;;;;;-67
2023/07/19 12:04:31;;;;;;;;;;;;;;;25.43;48.80859;101453.6;;;;-70
2023/07/19 12:09:29;;;;;;;;;;;;;;;25.41;48.875;101453.1;;;;-68
2023/07/19 12:14:28;;;;;;;;;;;;;;;25.47;49.21777;101448.2;;;;-66
2023/07/19 12:19:29;;;;;;;;;;;;;;;25.73;49.4873;101444.6;;;;-67
2023/07/19 12:24:28;;;;;;;;;;;;;;;26.3;49.29492;101452.5;;;;-67
2023/07/19 12:29:29;;;;;;;;;;;;;;;26.61;48.12402;101454.1;;;;-66
2023/07/19 12:34:20;;;;;;;0.2;0;;;;;;;;;;;;;-68
2023/07/19 12:34:29;;;;;;;;;;;;;;;26.56;46.89063;101456.8;;;;-70
2023/07/19 12:39:29;;;;;;;;;;;;;;;26.4;47.63867;101455.4;;;;-66
2023/07/19 12:44:29;;;;;;;;;;;;;;;26.42;47.80273;101454.4;;;;-68
2023/07/19 12:49:29;;;;;;;;;;;;;;;26.6;47.16211;101450.1;;;;-67
2023/07/19 12:54:31;;;;;;;;;;;;;;;26.82;47.24219;101450.5;;;;-67
2023/07/19 12:59:32;;;;;;;;;;;;;;;26.84;45.7959;101449.4;;;;-67
2023/07/19 13:04:24;;;;;;;0.2;0;;;;;;;;;;;;;-69
2023/07/19 13:04:34;;;;;;;;;;;;;;;26.95;45.8418;101448.2;;;;-68
2023/07/19 13:09:31;;;;;;;;;;;;;;;27.08;46.19141;101444.6;;;;-67
2023/07/19 13:14:28;;;;;;;;;;;;;;;27.25;45.60449;101451.5;;;;-68
2023/07/19 13:19:29;;;;;;;;;;;;;;;27.53;44.61035;101449.6;;;;-68
2023/07/19 13:24:29;;;;;;;;;;;;;;;27.69;45.89355;101454;;;;-68
2023/07/19 13:29:29;;;;;;;;;;;;;;;28.11;45.56348;101458.5;;;;-68
2023/07/19 13:34:29;;;;;;;0.2;0;;;;;;;;;;;;;-67
2023/07/19 13:34:41;;;;;;;;;;;;;;;28.46;44.59668;101461.8;;;;-69
2023/07/19 13:39:29;;;;;;;;;;;;;;;28.22;43.24609;101458;;;;-67
2023/07/19 13:44:31;;;;;;;;;;;;;;;28.01;43.50488;101457.6;;;;-67
2023/07/19 13:49:29;;;;;;;;;;;;;;;28.17;44.05664;101454.1;;;;-68
2023/07/19 13:54:29;;;;;;;;;;;;;;;28.37;43.89063;101454.1;;;;-68
2023/07/19 13:59:29;;;;;;;;;;;;;;;28.45;44.1416;101456.1;;;;-67
2023/07/19 14:04:28;;;;;;;;;;;;;;;28.73;43.10742;101457.9;;;;-67
2023/07/19 14:04:38;;;;;;;0.2;0;;;;;;;;;;;;;-67
2023/07/19 14:09:28;;;;;;;;;;;;;;;28.74;43.0625;101459.2;;;;-67
2023/07/19 14:14:29;;;;;;;;;;;;;;;28.69;42.3125;101465.5;;;;-68
2023/07/19 14:19:29;;;;;;;;;;;;;;;28.79;43.62793;101463.1;;;;-65
2023/07/19 14:24:29;;;;;;;;;;;;;;;28.93;42.5459;101463;;;;-68
2023/07/19 14:29:29;;;;;;;;;;;;;;;28.65;42.27344;101461.8;;;;-67
2023/07/19 14:34:29;;;;;;;;;;;;;;;28.82;42.82617;101465.5;;;;-69
2023/07/19 14:34:38;;;;;;;0.2;0;;;;;;;;;;;;;-69
2023/07/19 14:39:29;;;;;;;;;;;;;;;28.94;41.0752;101465.7;;;;-67
2023/07/19 14:44:29;;;;;;;;;;;;;;;28.83;41.59082;101457.7;;;;-67
2023/07/19 14:49:29;;;;;;;;;;;;;;;28.81;41.00586;101464;;;;-69
2023/07/19 14:54:28;;;;;;;;;;;;;;;28.71;41.74316;101465.5;;;;-68
2023/07/19 14:59:29;;;;;;;;;;;;;;;28.77;42.5293;101456.8;;;;-67
2023/07/19 15:04:29;;;;;;;;;;;;;;;29.02;41.31641;101454.5;;;;-66
2023/07/19 15:04:42;;;;;;;0.3;0;;;;;;;;;;;;;-67
2023/07/19 15:09:29;;;;;;;;;;;;;;;29.18;40.92188;101453.8;;;;-75
2023/07/19 15:14:29;;;;;;;;;;;;;;;29.37;40.16797;101455.1;;;;-70
2023/07/19 15:19:29;;;;;;;;;;;;;;;29.57;39.78809;101458.5;;;;-70
2023/07/19 15:24:29;;;;;;;;;;;;;;;29.23;39.56055;101457.1;;;;-69
2023/07/19 15:29:29;;;;;;;;;;;;;;;28.92;40.72363;101457;;;;-71
2023/07/19 15:34:29;;;;;;;;;;;;;;;28.73;41.47754;101459.7;;;;-73
2023/07/19 15:34:48;;;;;;;0.2;0;;;;;;;;;;;;;-72
2023/07/19 15:39:31;;;;;;;;;;;;;;;28.7;40.80859;101459.3;;;;-68
2023/07/19 15:44:29;;;;;;;;;;;;;;;28.51;40.97852;101463.7;;;;-68
2023/07/19 15:49:29;;;;;;;;;;;;;;;28.14;41.77148;101454.8;;;;-69
2023/07/19 15:54:29;;;;;;;;;;;;;;;27.84;42.32617;101455.2;;;;-67
2023/07/19 15:59:29;;;;;;;;;;;;;;;27.65;42.55273;101455;;;;-72
2023/07/19 16:04:29;;;;;;;;;;;;;;;27.57;41.97559;101451.9;;;;-72
2023/07/19 16:04:56;;;;;;;0.3;0;;;;;;;;;;;;;-73
2023/07/19 16:09:32;;;;;;;;;;;;;;;27.48;41.80371;101448.2;;;;-68
2023/07/19 16:14:29;;;;;;;;;;;;;;;27.33;42.65039;101448.5;;;;-70
2023/07/19 16:19:29;;;;;;;;;;;;;;;27.16;42.35547;101452.7;;;;-70
2023/07/19 16:24:29;;;;;;;;;;;;;;;27.03;42.61035;101457.3;;;;-70
2023/07/19 16:29:28;;;;;;;;;;;;;;;26.89;42.85254;101457.8;;;;-69
2023/07/19 16:34:29;;;;;;;;;;;;;;;26.73;43.35938;101461.1;;;;-70
2023/07/19 16:34:58;;;;;;;0.1;0;;;;;;;;;;;;;-70
2023/07/19 16:39:30;;;;;;;;;;;;;;;26.62;43.55762;101459.8;;;;-69
2023/07/19 16:44:29;;;;;;;;;;;;;;;26.47;43.56641;101467.5;;;;-68
2023/07/19 16:49:29;;;;;;;;;;;;;;;26.29;43.72266;101471;;;;-72
2023/07/19 16:54:29;;;;;;;;;;;;;;;26.13;43.9043;101472.1;;;;-68
2023/07/19 16:59:29;;;;;;;;;;;;;;;25.94;44.07129;101470.9;;;;-69
2023/07/19 17:04:30;;;;;;;;;;;;;;;25.75;44.07617;101476.9;;;;-68
2023/07/19 17:05:02;;;;;;;0.2;0;;;;;;;;;;;;;-69
2023/07/19 17:09:29;;;;;;;;;;;;;;;25.59;44.5459;101479.2;;;;-70
2023/07/19 17:14:30;;;;;;;;;;;;;;;23.98;46.54199;101478;;;;-74
2023/07/19 17:19:30;;;;;;;;;;;;;;;23.4;48.09375;101481;;;;-71
2023/07/19 17:24:29;;;;;;;;;;;;;;;24.22;46.42969;101480.1;;;;-73
2023/07/19 17:29:29;;;;;;;;;;;;;;;24.41;45.7793;101479.9;;;;-70
2023/07/19 17:34:29;;;;;;;;;;;;;;;24.33;45.56348;101480;;;;-68
2023/07/19 17:35:08;;;;;;;0.2;0;;;;;;;;;;;;;-71
2023/07/19 17:39:29;;;;;;;;;;;;;;;24.17;45.98633;101475.3;;;;-68
2023/07/19 17:44:29;;;;;;;;;;;;;;;24.05;46.06543;101472.8;;;;-68
2023/07/19 17:49:32;;;;;;;;;;;;;;;23.95;46.08984;101477.6;;;;-68
2023/07/19 17:54:31;;;;;;;;;;;;;;;23.86;46.10352;101472.9;;;;-71
2023/07/19 17:59:31;;;;;;;;;;;;;;;23.76;45.875;101474;;;;-72
2023/07/19 18:04:31;;;;;;;;;;;;;;;23.61;46.15918;101472.2;;;;-71
2023/07/19 18:05:11;;;;;;;0.2;0;;;;;;;;;;;;;-71
2023/07/19 18:09:29;;;;;;;;;;;;;;;23.47;46.06348;101471.7;;;;-71
2023/07/19 18:14:29;;;;;;;;;;;;;;;23.34;45.86621;101483.4;;;;-72
2023/07/19 18:19:30;;;;;;;;;;;;;;;23.23;46.22266;101479.7;;;;-72
2023/07/19 18:24:35;;;;;;;;;;;;;;;23.12;46.41895;101479.8;;;;-72
2023/07/19 18:29:29;;;;;;;;;;;;;;;22.99;46.46289;101479.4;;;;-73
2023/07/19 18:34:29;;;;;;;;;;;;;;;22.86;46.08203;101485.4;;;;-74
2023/07/19 18:35:14;;;;;;;0.2;0;;;;;;;;;;;;;-72
2023/07/19 18:39:29;;;;;;;;;;;;;;;22.73;46.67773;101483.8;;;;-70
2023/07/19 18:44:29;;;;;;;;;;;;;;;22.62;46.37793;101488.3;;;;-71
2023/07/19 18:49:29;;;;;;;;;;;;;;;22.52;46.19531;101487;;;;-72
2023/07/19 18:54:31;;;;;;;;;;;;;;;22.4;46.66504;101490.5;;;;-71
2023/07/19 18:59:30;;;;;;;;;;;;;;;22.26;46.62891;101489.1;;;;-72
2023/07/19 19:04:28;;;;;;;;;;;;;;;22.14;46.58105;101487.7;;;;-69
2023/07/19 19:05:18;;;;;;;0.2;0;;;;;;;;;;;;;-68
2023/07/19 19:09:29;;;;;;;;;;;;;;;22.01;46.7627;101485.5;;;;-70
2023/07/19 19:14:31;;;;;;;;;;;;;;;21.87;46.8623;101485.9;;;;-69
2023/07/19 19:19:32;;;;;;;;;;;;;;;21.74;47.37598;101486.5;;;;-69
2023/07/19 19:24:29;;;;;;;;;;;;;;;21.6;47.26953;101487.8;;;;-69
2023/07/19 19:29:29;;;;;;;;;;;;;;;21.48;47.8291;101492.3;;;;-70
2023/07/19 19:34:29;;;;;;;;;;;;;;;21.35;48.49121;101489.4;;;;-70
2023/07/19 19:35:21;;;;;;;0.2;0;;;;;;;;;;;;;-68
2023/07/19 19:39:30;;;;;;;;;;;;;;;21.21;48.5791;101492.6;;;;-70
2023/07/19 19:44:29;;;;;;;;;;;;;;;21.07;48.73633;101490.5;;;;-70
2023/07/19 19:49:29;;;;;;;;;;;;;;;20.93;49.12012;101495.7;;;;-69
2023/07/19 19:54:29;;;;;;;;;;;;;;;20.79;49.5625;101496.6;;;;-69
2023/07/19 19:59:29;;;;;;;;;;;;;;;20.65;49.93555;101497;;;;-69
2023/07/19 20:04:29;;;;;;;;;;;;;;;20.52;50.71973;101491.8;;;;-70
2023/07/19 20:05:24;;;;;;;0.2;0.1;;;;;;;;;;;;;-69
2023/07/19 20:09:29;;;;;;;;;;;;;;;20.41;50.70801;101497.5;;;;-69
2023/07/19 20:14:29;;;;;;;;;;;;;;;20.31;51.16406;101499.4;;;;-67
2023/07/19 20:19:32;;;;;;;;;;;;;;;20.18;51.14941;101501.5;;;;-70
2023/07/19 20:24:29;;;;;;;;;;;;;;;20.08;51.70801;101496.8;;;;-69
2023/07/19 20:29:29;;;;;;;;;;;;;;;19.99;51.93848;101497.6;;;;-68
2023/07/19 20:34:30;;;;;;;;;;;;;;;19.91;52.19043;101495.6;;;;-68
2023/07/19 20:35:27;;;;;;;0.3;0.1;;;;;;;;;;;;;-69
2023/07/19 20:39:29;;;;;;;;;;;;;;;19.82;52.37305;101507.3;;;;-69
2023/07/19 20:44:29;;;;;;;;;;;;;;;19.72;53.10156;101507.5;;;;-68
2023/07/19 20:49:29;;;;;;;;;;;;;;;19.63;53.4668;101517.8;;;;-69
2023/07/19 20:54:29;;;;;;;;;;;;;;;19.55;53.72949;101518.5;;;;-69
2023/07/19 20:59:28;;;;;;;;;;;;;;;19.46;53.91309;101520.7;;;;-68
2023/07/19 21:04:28;;;;;;;;;;;;;;;19.39;54.25781;101524.9;;;;-69
2023/07/19 21:05:30;;;;;;;0.2;0.1;;;;;;;;;;;;;-70
2023/07/19 21:09:28;;;;;;;;;;;;;;;19.32;54.41992;101529.6;;;;-68
2023/07/19 21:14:30;;;;;;;;;;;;;;;19.25;54.74121;101525.9;;;;-67
2023/07/19 21:19:29;;;;;;;;;;;;;;;19.17;54.71973;101528.7;;;;-68
2023/07/19 21:24:29;;;;;;;;;;;;;;;19.11;54.98633;101536.4;;;;-67
2023/07/19 21:29:29;;;;;;;;;;;;;;;19.04;55.0791;101534.7;;;;-68
2023/07/19 21:34:35;;;;;;;;;;;;;;;18.94;55.1123;101531.6;;;;-69
2023/07/19 21:35:33;;;;;;;0.2;0.1;;;;;;;;;;;;;-68
2023/07/19 21:39:30;;;;;;;;;;;;;;;18.89;55.62695;101537;;;;-68
2023/07/19 21:44:29;;;;;;;;;;;;;;;18.8;55.82129;101539.7;;;;-68
2023/07/19 21:49:31;;;;;;;;;;;;;;;18.74;55.84766;101532.5;;;;-68
2023/07/19 21:54:28;;;;;;;;;;;;;;;18.7;55.96777;101527.7;;;;-68
2023/07/19 21:59:29;;;;;;;;;;;;;;;18.65;55.79102;101530.8;;;;-69
2023/07/19 22:04:30;;;;;;;;;;;;;;;18.58;55.92969;101529.6;;;;-68
2023/07/19 22:05:36;;;;;;;0.2;0;;;;;;;;;;;;;-68
2023/07/19 22:09:29;;;;;;;;;;;;;;;18.56;56.25684;101533.6;;;;-68
2023/07/19 22:14:28;;;;;;;;;;;;;;;18.52;56.31934;101539.6;;;;-69
2023/07/19 22:19:28;;;;;;;;;;;;;;;18.48;56.24609;101544.9;;;;-69
2023/07/19 22:24:28;;;;;;;;;;;;;;;18.41;56.39648;101549.5;;;;-68
2023/07/19 22:29:29;;;;;;;;;;;;;;;18.36;56.96875;101552.2;;;;-69
2023/07/19 22:34:28;;;;;;;;;;;;;;;18.25;56.875;101557.2;;;;-68
2023/07/19 22:35:41;;;;;;;0.3;0.1;;;;;;;;;;;;;-68
2023/07/19 22:39:29;;;;;;;;;;;;;;;18.19;56.91406;101561.3;;;;-68
2023/07/19 22:44:28;;;;;;;;;;;;;;;18.15;56.99902;101562.8;;;;-70
2023/07/19 22:49:28;;;;;;;;;;;;;;;18.07;57.30566;101562.1;;;;-69
2023/07/19 22:54:28;;;;;;;;;;;;;;;18.08;57.13672;101560.3;;;;-67
2023/07/19 22:59:29;;;;;;;;;;;;;;;18.01;57.28613;101559;;;;-67
2023/07/19 23:04:29;;;;;;;;;;;;;;;17.95;57.60742;101561.8;;;;-71
2023/07/19 23:05:40;;;;;;;0.2;0;;;;;;;;;;;;;-69
2023/07/19 23:09:33;;;;;;;;;;;;;;;17.94;57.43555;101563.8;;;;-68
2023/07/19 23:14:29;;;;;;;;;;;;;;;17.9;57.69238;101561.4;;;;-69
2023/07/19 23:19:29;;;;;;;;;;;;;;;17.87;57.31348;101555.8;;;;-70
2023/07/19 23:24:33;;;;;;;;;;;;;;;17.83;57.45508;101552.9;;;;-68
2023/07/19 23:29:28;;;;;;;;;;;;;;;17.76;57.77344;101560.6;;;;-68
2023/07/19 23:34:29;;;;;;;;;;;;;;;17.68;57.91113;101558;;;;-71
2023/07/19 23:35:43;;;;;;;0.2;0.1;;;;;;;;;;;;;-68
2023/07/19 23:39:29;;;;;;;;;;;;;;;17.59;57.80957;101559;;;;-67
2023/07/19 23:44:29;;;;;;;;;;;;;;;17.52;58.01563;101555.6;;;;-68
2023/07/19 23:49:30;;;;;;;;;;;;;;;17.43;58.27539;101556;;;;-69
2023/07/19 23:54:31;;;;;;;;;;;;;;;17.32;58.18164;101552.3;;;;-69
2023/07/19 23:59:29;;;;;;;;;;;;;;;17.27;58.29883;101552.9;;;;-69
